METAR Data
IDs: Format: Raw Decoded Include TAF

Data at: 1332 UTC 14 Dec 2019

METAR for:KFFL (Fairfield Muni, IA, US)
Text:KFFL 141315Z AUTO 33011KT 9SM OVC011 M03/M04 A2985 RMK A01
Temperature: -3.0°C ( 27°F)
Dewpoint: -4.0°C ( 25°F) [RH = 93%]
Pressure (altimeter):29.85 inches Hg (1010.9 mb)
Winds:from the NNW (330 degrees) at 13 MPH (11 knots; 5.7 m/s)
Visibility: 9 sm ( 14 km)
Ceiling:1100 feet AGL
Clouds: overcast cloud deck at 1100 feet AGL
QC Flag:automated observation with no human augmentation